createdAt,value
2018-10-06T00:00:28.711Z,5.60
2018-10-06T00:02:59.429Z,6.47
2018-10-06T00:05:30.481Z,6.40
2018-10-06T00:07:59.929Z,6.90
2018-10-06T00:10:30.768Z,5.97
2018-10-06T00:13:01.988Z,4.80
2018-10-06T00:15:31.122Z,8.47
2018-10-06T00:18:00.758Z,8.90
2018-10-06T00:20:30.218Z,5.97
2018-10-06T00:23:02.017Z,5.23
2018-10-06T00:25:35.178Z,6.60
2018-10-06T00:28:04.778Z,5.17
2018-10-06T00:30:37.648Z,6.90
2018-10-06T00:33:14.086Z,8.57
2018-10-06T00:35:47.279Z,5.17
2018-10-06T00:38:20.786Z,8.80
2018-10-06T00:40:56.766Z,7.63
2018-10-06T00:43:28.817Z,6.10
2018-10-06T00:45:58.804Z,4.50
2018-10-06T00:48:28.249Z,5.73
2018-10-06T00:50:58.823Z,6.03
2018-10-06T00:53:29.856Z,6.70
2018-10-06T00:56:00.904Z,5.73
2018-10-06T00:58:32.142Z,7.40
2018-10-06T01:01:01.534Z,5.50
2018-10-06T01:03:30.625Z,6.07
2018-10-06T01:05:59.707Z,5.53
2018-10-06T01:08:29.660Z,4.40
2018-10-06T01:11:01.118Z,5.03
2018-10-06T01:13:33.145Z,5.97
2018-10-06T01:16:03.604Z,5.67
2018-10-06T01:18:34.308Z,5.03
2018-10-06T01:21:04.599Z,7.67
2018-10-06T01:23:35.710Z,6.27
2018-10-06T01:26:05.323Z,6.37
2018-10-06T01:28:35.283Z,5.10
2018-10-06T01:31:04.596Z,5.03
2018-10-06T01:33:34.402Z,5.13
2018-10-06T01:36:06.088Z,6.27
2018-10-06T01:38:36.684Z,4.53
2018-10-06T01:41:09.111Z,6.87
2018-10-06T01:43:41.832Z,9.00
2018-10-06T01:46:11.666Z,5.62
2018-10-06T01:48:41.921Z,6.43
2018-10-06T01:51:14.422Z,3.93
2018-10-06T01:53:44.087Z,4.73
2018-10-06T01:56:17.526Z,5.25
2018-10-06T01:58:51.979Z,5.00
2018-10-06T02:01:25.669Z,4.97
2018-10-06T02:03:57.509Z,6.60
2018-10-06T02:06:29.592Z,5.53
2018-10-06T02:09:00.779Z,5.20
2018-10-06T02:11:32.364Z,6.87
2018-10-06T02:14:04.770Z,5.97
2018-10-06T02:16:33.557Z,5.63
2018-10-06T02:19:47.905Z,5.10
2018-10-06T02:22:17.501Z,5.30
2018-10-06T02:24:47.634Z,4.63
2018-10-06T02:27:16.739Z,6.67
2018-10-06T02:29:45.938Z,8.53
2018-10-06T02:32:15.274Z,5.87
2018-10-06T02:34:46.357Z,4.80
2018-10-06T02:37:15.879Z,4.17
2018-10-06T02:39:45.120Z,5.33
2018-10-06T02:42:14.866Z,4.50
2018-10-06T02:44:44.413Z,8.13
2018-10-06T02:47:14.735Z,5.83
2018-10-06T02:49:44.287Z,8.27
2018-10-06T02:52:16.916Z,7.80
2018-10-06T02:54:50.778Z,5.87
2018-10-06T02:57:20.223Z,6.47
2018-10-06T02:59:51.329Z,4.90
2018-10-06T03:02:20.403Z,4.17
2018-10-06T03:04:49.591Z,4.30
2018-10-06T03:07:18.696Z,7.93
2018-10-06T03:09:50.059Z,4.90
2018-10-06T03:12:19.430Z,5.07
2018-10-06T03:14:48.902Z,4.97
2018-10-06T03:17:18.676Z,5.60
2018-10-06T03:19:47.975Z,5.50
2018-10-06T03:22:16.828Z,4.03
2018-10-06T03:24:46.775Z,4.30
2018-10-06T03:27:16.437Z,4.03
2018-10-06T03:29:47.178Z,5.63
2018-10-06T03:32:17.668Z,6.03
2018-10-06T03:34:50.030Z,5.00
2018-10-06T03:37:21.409Z,6.70
2018-10-06T03:39:52.588Z,4.20
2018-10-06T03:42:22.882Z,3.70
2018-10-06T03:44:52.219Z,4.73
2018-10-06T03:47:22.448Z,4.33
2018-10-06T03:49:53.568Z,3.98
2018-10-06T03:52:23.164Z,4.00
2018-10-06T03:54:52.540Z,6.43
2018-10-06T03:57:22.287Z,6.23
2018-10-06T03:59:52.508Z,3.83
2018-10-06T04:02:22.970Z,5.20
2018-10-06T04:04:52.989Z,3.97
2018-10-06T04:07:26.366Z,6.57
2018-10-06T04:10:00.967Z,3.80
2018-10-06T04:12:31.832Z,3.57
2018-10-06T04:15:04.076Z,4.10
2018-10-06T04:17:36.661Z,2.90
2018-10-06T04:20:09.460Z,3.50
2018-10-06T04:23:04.153Z,3.47
2018-10-06T04:28:49.890Z,4.93
2018-10-06T04:31:21.476Z,5.30
2018-10-06T04:33:58.835Z,4.00
2018-10-06T04:36:29.967Z,8.67
2018-10-06T04:41:51.109Z,4.67
2018-10-06T04:44:21.616Z,3.93
2018-10-06T04:46:51.315Z,3.50
2018-10-06T04:49:21.794Z,3.50
2018-10-06T04:52:06.552Z,5.13
2018-10-06T04:54:37.316Z,6.87
2018-10-06T04:57:06.293Z,6.13
2018-10-06T04:59:36.479Z,4.67
2018-10-06T05:02:05.339Z,3.97
2018-10-06T05:04:34.130Z,4.67
2018-10-06T05:07:03.287Z,4.33
2018-10-06T05:09:32.047Z,8.53
2018-10-06T05:12:00.881Z,6.33
2018-10-06T05:14:29.778Z,5.77
2018-10-06T05:16:58.940Z,6.47
2018-10-06T05:19:28.612Z,9.30
2018-10-06T05:21:58.216Z,6.53
2018-10-06T05:24:27.838Z,4.03
2018-10-06T05:26:57.683Z,6.43
2018-10-06T05:29:29.691Z,6.27
2018-10-06T05:32:04.087Z,9.00
2018-10-06T05:34:40.041Z,5.07
2018-10-06T05:37:21.899Z,4.53
2018-10-06T05:40:10.447Z,6.03
2018-10-06T05:42:50.347Z,3.73
2018-10-06T05:45:19.718Z,4.30
2018-10-06T05:47:52.415Z,8.80
2018-10-06T05:50:21.374Z,6.72
2018-10-06T05:52:51.355Z,4.07
2018-10-06T05:55:23.364Z,4.33
2018-10-06T05:57:54.426Z,4.80
2018-10-06T06:00:28.508Z,4.73
2018-10-06T06:02:57.428Z,6.70
2018-10-06T06:05:34.946Z,5.30
2018-10-06T06:08:05.801Z,4.93
2018-10-06T06:10:35.313Z,8.37
2018-10-06T06:13:05.839Z,8.00
2018-10-06T06:15:35.862Z,8.50
2018-10-06T06:18:04.595Z,9.67
2018-10-06T06:20:41.956Z,13.33
2018-10-06T06:23:12.851Z,11.90
2018-10-06T06:25:48.334Z,5.75
2018-10-06T06:28:18.347Z,4.33
2018-10-06T06:30:50.398Z,5.50
2018-10-06T06:36:06.372Z,11.67
2018-10-06T06:38:35.945Z,6.87
2018-10-06T06:41:22.356Z,4.73
2018-10-06T06:46:31.113Z,8.90
2018-10-06T06:49:01.068Z,9.30
2018-10-06T06:51:36.526Z,15.33
2018-10-06T06:54:06.094Z,7.43
2018-10-06T06:56:41.412Z,16.03
2018-10-06T06:59:13.014Z,23.00
2018-10-06T07:01:43.846Z,20.20
2018-10-06T07:04:12.643Z,16.73
2018-10-06T07:06:41.742Z,11.93
2018-10-06T07:09:11.453Z,21.87
2018-10-06T07:11:43.762Z,17.33
2018-10-06T07:14:12.470Z,22.40
2018-10-06T07:16:42.539Z,22.70
2018-10-06T07:19:40.202Z,20.63
2018-10-06T07:34:08.720Z,25.97
2018-10-06T07:36:58.365Z,28.57
2018-10-06T07:39:33.182Z,26.37
2018-10-06T07:55:02.684Z,27.80
2018-10-06T07:57:50.408Z,33.70
2018-10-06T08:00:22.716Z,33.97
2018-10-06T08:03:04.406Z,34.00
2018-10-06T08:05:48.035Z,38.67
2018-10-06T08:08:39.731Z,43.23
2018-10-06T08:11:16.149Z,37.97
2018-10-06T08:17:08.980Z,35.30
2018-10-06T08:19:37.947Z,34.87
2018-10-06T08:32:38.656Z,40.57
2018-10-06T08:42:17.348Z,41.83
2018-10-06T08:58:57.791Z,21.93
2018-10-06T09:01:33.451Z,26.67
2018-10-06T09:04:20.795Z,24.20
2018-10-06T09:06:52.251Z,15.07
2018-10-06T09:09:34.460Z,19.47
2018-10-06T09:12:10.633Z,21.13
2018-10-06T09:14:41.556Z,15.87
2018-10-06T09:17:11.500Z,23.47
2018-10-06T09:19:40.888Z,17.33
2018-10-06T09:22:10.195Z,14.17
2018-10-06T09:24:40.090Z,17.10
2018-10-06T09:27:10.547Z,17.40
2018-10-06T09:29:39.593Z,18.53
2018-10-06T09:32:08.797Z,14.20
2018-10-06T09:34:54.795Z,19.20
2018-10-06T09:37:23.644Z,15.80
2018-10-06T09:39:56.231Z,14.20
2018-10-06T09:42:44.370Z,17.90
2018-10-06T09:45:41.631Z,14.73
2018-10-06T09:48:35.480Z,14.73
2018-10-06T09:53:57.561Z,17.97
2018-10-06T09:59:55.791Z,15.37
2018-10-06T10:02:30.430Z,10.23
2018-10-06T10:05:06.204Z,13.47
2018-10-06T10:07:45.088Z,17.37
2018-10-06T10:10:48.517Z,13.37
2018-10-06T10:13:21.662Z,14.53
2018-10-06T10:51:43.477Z,19.47
2018-10-06T11:20:59.431Z,9.90
2018-10-06T11:40:04.302Z,8.30
2018-10-06T11:42:33.041Z,22.53
2018-10-06T11:45:16.421Z,10.03
2018-10-06T11:47:47.905Z,7.43
2018-10-06T11:50:16.856Z,6.20
2018-10-06T11:52:45.653Z,7.30
2018-10-06T11:55:14.369Z,4.93
2018-10-06T11:57:43.255Z,6.50
2018-10-06T12:00:12.575Z,7.07
2018-10-06T12:02:41.244Z,6.23
2018-10-06T12:05:09.980Z,5.27
2018-10-06T12:07:38.704Z,6.57
2018-10-06T12:10:07.917Z,5.47
2018-10-06T12:12:36.806Z,7.17
2018-10-06T12:15:05.554Z,8.00
2018-10-06T12:17:34.268Z,4.60
2018-10-06T12:20:02.980Z,4.57
2018-10-06T12:22:31.816Z,4.10
2018-10-06T12:25:00.678Z,5.70
2018-10-06T12:27:29.511Z,6.53
2018-10-06T12:29:58.301Z,8.80
2018-10-06T12:32:27.188Z,3.27
2018-10-06T12:34:56.208Z,7.87
2018-10-06T12:37:24.750Z,4.03
2018-10-06T12:39:53.544Z,4.53
2018-10-06T12:42:22.594Z,5.17
2018-10-06T12:44:51.358Z,4.50
2018-10-06T12:47:20.185Z,4.97
2018-10-06T12:49:49.238Z,5.07
2018-10-06T12:52:18.023Z,3.67
2018-10-06T12:54:46.695Z,7.53
2018-10-06T12:57:15.394Z,3.80
2018-10-06T12:59:44.097Z,3.60
2018-10-06T13:02:12.778Z,4.50
2018-10-06T13:04:41.565Z,4.10
2018-10-06T13:07:10.325Z,5.20
2018-10-06T13:09:39.099Z,5.43
2018-10-06T13:12:07.954Z,3.97
2018-10-06T13:14:36.820Z,5.20
2018-10-06T13:17:05.724Z,4.07
2018-10-06T13:19:34.567Z,3.87
2018-10-06T13:22:04.205Z,4.23
2018-10-06T13:24:33.002Z,5.10
2018-10-06T13:27:01.801Z,6.37
2018-10-06T13:29:30.580Z,2.83
2018-10-06T13:31:59.390Z,4.83
2018-10-06T13:34:28.079Z,4.87
2018-10-06T13:36:56.856Z,4.00
2018-10-06T13:39:25.788Z,4.10
2018-10-06T13:41:54.748Z,4.80
2018-10-06T13:44:23.636Z,5.60
2018-10-06T13:46:52.548Z,4.93
2018-10-06T13:49:21.291Z,3.07
2018-10-06T13:51:50.457Z,3.90
2018-10-06T13:54:19.496Z,4.50
2018-10-06T13:56:48.828Z,3.70
2018-10-06T13:59:17.554Z,4.97
2018-10-06T14:01:46.340Z,3.80
2018-10-06T14:04:14.991Z,4.50
2018-10-06T14:06:43.693Z,2.70
2018-10-06T14:09:12.363Z,3.40
2018-10-06T14:11:41.115Z,4.67
2018-10-06T14:14:09.817Z,4.33
2018-10-06T14:16:38.625Z,6.63
2018-10-06T14:19:07.450Z,3.07
2018-10-06T14:21:36.636Z,3.73
2018-10-06T14:24:05.585Z,5.40
2018-10-06T14:26:34.407Z,4.90
2018-10-06T14:29:03.950Z,3.17
2018-10-06T14:31:32.719Z,4.03
2018-10-06T14:34:01.536Z,5.07
2018-10-06T14:36:30.791Z,4.90
2018-10-06T14:38:59.680Z,3.77
2018-10-06T14:41:29.092Z,16.67
2018-10-06T14:43:58.467Z,5.37
2018-10-06T14:46:27.613Z,5.80
2018-10-06T14:48:57.375Z,4.00
2018-10-06T14:51:26.332Z,4.47
2018-10-06T14:53:58.373Z,4.43
2018-10-06T14:56:59.151Z,3.70
2018-10-06T14:59:28.005Z,5.53
2018-10-06T15:01:57.712Z,6.20
2018-10-06T15:04:26.507Z,3.87
2018-10-06T15:06:55.589Z,6.07
2018-10-06T15:09:24.375Z,5.30
2018-10-06T15:11:53.853Z,5.00
2018-10-06T15:14:22.851Z,4.83
2018-10-06T15:16:51.616Z,5.53
2018-10-06T15:19:20.361Z,4.23
2018-10-06T15:21:48.987Z,6.57
2018-10-06T15:24:17.615Z,5.13
2018-10-06T15:26:46.999Z,6.03
2018-10-06T15:29:17.004Z,4.20
2018-10-06T15:31:48.670Z,8.17
2018-10-06T15:34:17.300Z,5.93
2018-10-06T15:36:46.377Z,5.37
2018-10-06T15:39:15.135Z,7.40
2018-10-06T15:41:43.740Z,9.50
2018-10-06T15:44:12.556Z,7.30
2018-10-06T15:46:41.260Z,11.97
2018-10-06T15:49:10.052Z,7.53
2018-10-06T15:51:40.253Z,6.60
2018-10-06T15:54:08.952Z,8.03
2018-10-06T15:56:37.668Z,14.60
2018-10-06T15:59:06.395Z,6.63
2018-10-06T16:01:35.224Z,6.33
2018-10-06T16:04:04.571Z,6.13
2018-10-06T16:06:33.278Z,4.83
2018-10-06T16:09:01.987Z,6.03
2018-10-06T16:11:31.160Z,7.87
2018-10-06T16:13:59.839Z,6.13
2018-10-06T16:16:28.583Z,5.30
2018-10-06T16:18:58.033Z,6.67
2018-10-06T16:21:27.088Z,8.13
2018-10-06T16:23:56.367Z,5.47
2018-10-06T16:26:25.129Z,5.63
2018-10-06T16:28:53.823Z,5.63
2018-10-06T16:31:23.720Z,7.03
2018-10-06T16:33:53.039Z,5.80
2018-10-06T16:36:21.960Z,8.90
2018-10-06T16:38:50.688Z,6.40
2018-10-06T16:41:19.790Z,5.83
2018-10-06T16:43:48.654Z,7.73
2018-10-06T16:46:17.385Z,7.17
2018-10-06T16:48:46.146Z,5.03
2018-10-06T16:51:14.810Z,8.07
2018-10-06T16:53:43.695Z,8.37
2018-10-06T16:56:12.558Z,7.00
2018-10-06T16:58:41.322Z,13.63
2018-10-06T17:01:10.039Z,5.80
2018-10-06T17:03:38.814Z,5.37
2018-10-06T17:06:07.685Z,6.17
2018-10-06T17:08:36.828Z,7.40
2018-10-06T17:11:06.221Z,5.63
2018-10-06T17:13:39.791Z,6.50
2018-10-06T17:16:08.964Z,7.93
2018-10-06T17:18:38.673Z,5.37
2018-10-06T17:21:07.313Z,6.80
2018-10-06T17:23:37.170Z,7.17
2018-10-06T17:26:05.988Z,7.37
2018-10-06T17:28:34.864Z,7.23
2018-10-06T17:31:05.788Z,6.50
2018-10-06T17:33:34.987Z,5.83
2018-10-06T17:36:04.384Z,7.47
2018-10-06T17:38:33.391Z,6.17
2018-10-06T17:41:02.105Z,5.90
2018-10-06T17:43:31.781Z,6.30
2018-10-06T17:46:00.796Z,7.77
2018-10-06T17:48:29.545Z,6.37
2018-10-06T17:51:02.772Z,5.97
2018-10-06T17:53:31.429Z,8.27
2018-10-06T17:56:00.135Z,9.30
2018-10-06T17:58:29.406Z,6.13
2018-10-06T18:00:58.440Z,6.03
2018-10-06T18:03:27.634Z,10.03
2018-10-06T18:05:56.316Z,6.03
2018-10-06T18:08:26.218Z,7.63
2018-10-06T18:10:54.904Z,5.37
2018-10-06T18:13:24.594Z,6.63
2018-10-06T18:15:53.625Z,6.67
2018-10-06T18:18:22.685Z,6.53
2018-10-06T18:20:51.958Z,9.17
2018-10-06T18:23:20.770Z,6.73
2018-10-06T18:25:49.511Z,6.90
2018-10-06T18:28:18.291Z,5.67
2018-10-06T18:30:47.104Z,8.60
2018-10-06T18:33:15.967Z,8.13
2018-10-06T18:35:44.931Z,6.13
2018-10-06T18:38:13.850Z,7.30
2018-10-06T18:40:42.742Z,8.33
2018-10-06T18:43:11.715Z,10.00
2018-10-06T18:45:40.966Z,9.97
2018-10-06T18:48:10.054Z,9.57
2018-10-06T18:50:38.750Z,9.60
2018-10-06T18:53:07.524Z,7.40
2018-10-06T18:55:36.267Z,8.70
2018-10-06T18:58:04.998Z,11.43
2018-10-06T19:00:33.711Z,8.50
2018-10-06T19:03:02.834Z,8.10
2018-10-06T19:05:31.655Z,8.07
2018-10-06T19:08:00.452Z,22.17
2018-10-06T19:10:29.311Z,12.63
2018-10-06T19:12:58.214Z,19.87
2018-10-06T19:15:26.918Z,13.13
2018-10-06T19:17:55.614Z,18.93
2018-10-06T19:20:24.455Z,14.77
2018-10-06T19:22:53.131Z,12.77
2018-10-06T19:25:21.984Z,18.83
2018-10-06T19:27:50.688Z,28.73
2018-10-06T19:30:19.703Z,21.13
2018-10-06T19:32:48.493Z,24.30
2018-10-06T19:35:17.219Z,33.73
2018-10-06T19:37:45.933Z,18.60
2018-10-06T19:40:14.683Z,20.50
2018-10-06T19:42:43.409Z,18.63
2018-10-06T19:45:12.074Z,27.47
2018-10-06T19:47:40.899Z,23.77
2018-10-06T19:50:09.736Z,22.23
2018-10-06T19:52:38.474Z,26.30
2018-10-06T19:55:07.381Z,28.87
2018-10-06T19:57:36.255Z,26.47
2018-10-06T20:00:05.116Z,38.17
2018-10-06T20:02:33.766Z,29.43
2018-10-06T20:05:02.416Z,40.00
2018-10-06T20:07:31.120Z,36.00
2018-10-06T20:09:59.861Z,34.17
2018-10-06T20:12:28.527Z,35.90
2018-10-06T20:14:57.179Z,34.90
2018-10-06T20:17:25.844Z,38.37
2018-10-06T20:19:54.640Z,37.00
2018-10-06T20:22:23.404Z,35.97
2018-10-06T20:24:52.122Z,37.07
2018-10-06T20:27:20.843Z,35.30
2018-10-06T20:29:49.663Z,35.17
2018-10-06T20:32:18.447Z,38.67
2018-10-06T20:34:47.331Z,38.43
2018-10-06T20:37:16.062Z,36.37
2018-10-06T20:39:44.800Z,53.57
2018-10-06T20:42:13.469Z,44.90
2018-10-06T20:44:42.254Z,44.77
2018-10-06T20:47:10.912Z,44.10
2018-10-06T20:49:39.709Z,39.70
2018-10-06T20:52:08.457Z,46.00
2018-10-06T20:54:37.161Z,52.20
2018-10-06T20:57:05.812Z,44.97
2018-10-06T20:59:34.556Z,61.50
2018-10-06T21:02:04.178Z,50.73
2018-10-06T21:04:32.893Z,47.37
2018-10-06T21:07:01.560Z,44.57
2018-10-06T21:09:30.200Z,48.87
2018-10-06T21:11:58.866Z,51.37
2018-10-06T21:14:27.552Z,51.10
2018-10-06T21:16:56.250Z,61.87
2018-10-06T21:19:24.937Z,48.13
2018-10-06T21:21:53.648Z,49.83
2018-10-06T21:24:22.339Z,51.83
2018-10-06T21:26:51.245Z,49.43
2018-10-06T21:29:20.146Z,50.97
2018-10-06T21:31:48.838Z,51.03
2018-10-06T21:34:17.489Z,56.07
2018-10-06T21:36:46.230Z,55.60
2018-10-06T21:39:15.012Z,47.87
2018-10-06T21:41:43.741Z,55.37
2018-10-06T21:44:12.466Z,53.83
2018-10-06T21:46:41.140Z,50.83
2018-10-06T21:49:09.885Z,57.73
2018-10-06T21:51:38.574Z,58.30
2018-10-06T21:54:07.317Z,56.33
2018-10-06T21:56:35.999Z,55.57
2018-10-06T21:59:04.795Z,55.60
2018-10-06T22:01:34.867Z,53.27
2018-10-06T22:04:03.615Z,59.07
2018-10-06T22:06:32.284Z,57.13
2018-10-06T22:09:01.094Z,50.97
2018-10-06T22:11:29.990Z,51.30
2018-10-06T22:13:58.689Z,44.27
2018-10-06T22:16:27.414Z,49.53
2018-10-06T22:18:56.110Z,42.60
2018-10-06T22:21:25.033Z,40.20
2018-10-06T22:23:54.090Z,38.87
2018-10-06T22:26:22.841Z,40.27
2018-10-06T22:28:51.644Z,40.60
2018-10-06T22:31:20.408Z,33.80
2018-10-06T22:33:49.146Z,29.57
2018-10-06T22:36:17.936Z,29.37
2018-10-06T22:38:46.834Z,28.03
2018-10-06T22:41:15.518Z,21.73
2018-10-06T22:43:44.277Z,24.07
2018-10-06T22:46:13.064Z,23.10
2018-10-06T22:48:41.830Z,27.57
2018-10-06T22:51:10.606Z,22.13
2018-10-06T22:53:39.396Z,19.03
2018-10-06T22:56:08.805Z,15.93
2018-10-06T22:58:37.633Z,14.10
2018-10-06T23:01:06.273Z,16.43
2018-10-06T23:03:34.992Z,16.53
2018-10-06T23:06:04.493Z,15.73
2018-10-06T23:08:33.231Z,13.40
2018-10-06T23:11:01.859Z,13.00
2018-10-06T23:13:30.590Z,11.20
2018-10-06T23:15:59.313Z,11.90
2018-10-06T23:18:28.352Z,14.27
2018-10-06T23:20:57.100Z,8.70
2018-10-06T23:23:25.747Z,10.23
2018-10-06T23:25:54.752Z,11.97
2018-10-06T23:28:23.498Z,10.37
2018-10-06T23:30:52.235Z,12.47
2018-10-06T23:33:21.063Z,7.03
2018-10-06T23:35:49.816Z,4.47
2018-10-06T23:38:18.523Z,6.93
2018-10-06T23:40:47.258Z,8.93
2018-10-06T23:43:16.014Z,5.63
2018-10-06T23:45:44.922Z,6.93
2018-10-06T23:48:13.695Z,5.30
2018-10-06T23:50:42.370Z,7.90
2018-10-06T23:53:11.056Z,5.40
2018-10-06T23:55:39.806Z,6.87
2018-10-06T23:58:08.500Z,5.63
